Time;durP1;ratioP1;P1;durP2;ratioP2;P2;SDS_P1;SDS_P2;PMS_P1;PMS_P2;Temp;Humidity;BMP_temperature;BMP_pressure;BME280_temperature;BME280_humidity;BME280_pressure;Samples;Min_cycle;Max_cycle;Signal;HPM_P1;HPM_P2
2022/09/27 00:01:43;;;;;;;21.42;3.25;;;;;;;;;;4991972;28;20101;-66
2022/09/27 00:04:11;;;;;;;15.07;2.25;;;;;;;;;;4991771;28;20026;-66
2022/09/27 00:06:37;;;;;;;13.00;2.45;;;;;;;;;;4991461;28;20054;-66
2022/09/27 00:09:03;;;;;;;15.80;2.97;;;;;;;;;;4991591;28;20821;-66
2022/09/27 00:11:33;;;;;;;15.60;2.03;;;;;;;;;;4991712;28;20030;-66
2022/09/27 00:14:00;;;;;;;28.15;3.90;;;;;;;;;;4993792;28;20114;-66
2022/09/27 00:16:27;;;;;;;12.70;2.10;;;;;;;;;;5004747;28;20034;-66
2022/09/27 00:18:58;;;;;;;17.35;2.33;;;;;;;;;;4990215;28;20026;-66
2022/09/27 00:21:25;;;;;;;18.08;2.22;;;;;;;;;;4995081;28;20030;-66
2022/09/27 00:23:51;;;;;;;21.73;2.70;;;;;;;;;;4995229;28;20490;-66
2022/09/27 00:26:17;;;;;;;10.57;2.15;;;;;;;;;;4995195;28;20394;-66
2022/09/27 00:28:43;;;;;;;14.55;2.03;;;;;;;;;;4994842;28;20030;-66
2022/09/27 00:31:19;;;;;;;10.05;2.35;;;;;;;;;;4993918;28;20038;-66
2022/09/27 00:33:50;;;;;;;11.18;2.10;;;;;;;;;;4993253;28;20061;-66
2022/09/27 00:36:17;;;;;;;14.38;2.72;;;;;;;;;;4992999;28;20490;-66
2022/09/27 00:38:43;;;;;;;11.60;2.40;;;;;;;;;;4994110;28;20023;-66
2022/09/27 00:41:15;;;;;;;21.40;2.40;;;;;;;;;;4993909;28;20030;-66
2022/09/27 00:43:46;;;;;;;15.68;2.33;;;;;;;;;;4981644;28;20134;-66
2022/09/27 00:46:14;;;;;;;20.25;2.22;;;;;;;;;;4994743;28;20034;-66
2022/09/27 00:48:41;;;;;;;12.77;2.78;;;;;;;;;;4994990;28;20101;-66
2022/09/27 00:51:08;;;;;;;16.75;3.28;;;;;;;;;;4994248;28;20185;-66
2022/09/27 00:53:41;;;;;;;19.13;3.22;;;;;;;;;;4994287;28;20030;-66
2022/09/27 00:56:10;;;;;;;15.10;2.60;;;;;;;;;;4994398;28;20033;-66
2022/09/27 00:58:38;;;;;;;19.88;2.72;;;;;;;;;;4994523;28;20037;-66
2022/09/27 01:01:09;;;;;;;16.98;2.38;;;;;;;;;;4992775;28;20033;-66
2022/09/27 01:03:35;;;;;;;10.23;2.33;;;;;;;;;;4993203;28;20080;-66
2022/09/27 01:06:01;;;;;;;20.85;2.63;;;;;;;;;;4994329;28;20381;-66
2022/09/27 01:08:28;;;;;;;15.52;2.85;;;;;;;;;;4994006;28;20026;-66
2022/09/27 01:11:05;;;;;;;21.23;3.08;;;;;;;;;;4993258;28;20030;-66
2022/09/27 01:13:37;;;;;;;23.10;2.65;;;;;;;;;;4994115;28;20437;-66
2022/09/27 01:16:22;;;;;;;26.65;3.65;;;;;;;;;;5004323;28;20486;-66
2022/09/27 01:19:24;;;;;;;13.55;2.58;;;;;;;;;;4988898;28;20524;-66
2022/09/27 01:22:00;;;;;;;25.10;3.88;;;;;;;;;;4937156;28;20033;-66
2022/09/27 01:24:26;;;;;;;16.50;2.80;;;;;;;;;;4953088;29;20090;-66
2022/09/27 01:27:01;;;;;;;18.10;2.50;;;;;;;;;;4936011;28;20034;-66
2022/09/27 01:29:30;;;;;;;20.83;3.28;;;;;;;;;;4937068;29;20507;-66
2022/09/27 01:31:57;;;;;;;18.58;4.15;;;;;;;;;;4951089;28;20035;-66
2022/09/27 01:34:27;;;;;;;17.92;2.67;;;;;;;;;;4936549;29;20031;-66
2022/09/27 01:37:04;;;;;;;21.65;3.47;;;;;;;;;;4953040;29;20079;-66
2022/09/27 01:39:48;;;;;;;23.58;3.33;;;;;;;;;;4952770;28;20043;-66
2022/09/27 01:42:33;;;;;;;17.60;2.80;;;;;;;;;;4950926;28;20186;-66
2022/09/27 01:45:24;;;;;;;24.40;2.70;;;;;;;;;;4936865;29;20027;-66
2022/09/27 01:48:04;;;;;;;12.57;2.13;;;;;;;;;;4892746;29;20519;-66
2022/09/27 01:50:55;;;;;;;14.38;2.55;;;;;;;;;;4892800;29;20072;-66
2022/09/27 01:53:24;;;;;;;8.90;2.30;;;;;;;;;;4892753;29;20169;-66
2022/09/27 01:56:08;;;;;;;10.35;1.95;;;;;;;;;;4898237;29;20119;-66
2022/09/27 01:58:53;;;;;;;11.15;1.92;;;;;;;;;;4898712;29;20496;-66
2022/09/27 02:01:21;;;;;;;8.27;1.70;;;;;;;;;;4898632;29;20032;-66
2022/09/27 02:03:51;;;;;;;6.40;1.35;;;;;;;;;;4898191;29;20032;-66
2022/09/27 02:06:45;;;;;;;10.27;2.08;;;;;;;;;;4905226;29;20028;-66
2022/09/27 02:09:22;;;;;;;4.07;1.17;;;;;;;;;;4898564;29;20032;-66
2022/09/27 02:12:03;;;;;;;9.82;1.70;;;;;;;;;;4898513;29;20079;-66
2022/09/27 02:14:53;;;;;;;9.70;1.70;;;;;;;;;;4919718;29;20024;-66
2022/09/27 02:17:38;;;;;;;13.98;2.20;;;;;;;;;;4911546;29;20068;-66
2022/09/27 02:20:05;;;;;;;7.05;1.75;;;;;;;;;;4909462;29;20096;-66
2022/09/27 02:22:44;;;;;;;17.80;2.13;;;;;;;;;;4914099;29;20437;-66
2022/09/27 02:25:19;;;;;;;9.95;2.10;;;;;;;;;;4973648;28;20065;-66
2022/09/27 02:27:45;;;;;;;11.55;2.50;;;;;;;;;;4991801;28;20058;-66
2022/09/27 02:30:13;;;;;;;9.35;1.75;;;;;;;;;;4991234;28;20469;-66
2022/09/27 02:32:42;;;;;;;6.13;1.45;;;;;;;;;;4991233;28;20042;-66
2022/09/27 02:35:13;;;;;;;12.23;1.92;;;;;;;;;;4991539;28;20030;-66
2022/09/27 02:37:39;;;;;;;10.48;1.35;;;;;;;;;;4991073;28;20498;-66
2022/09/27 02:40:06;;;;;;;11.80;2.28;;;;;;;;;;4990700;28;20038;-66
2022/09/27 02:42:33;;;;;;;16.50;2.65;;;;;;;;;;4991519;28;20034;-66
2022/09/27 02:44:59;;;;;;;23.08;2.03;;;;;;;;;;4993829;28;20026;-66
2022/09/27 02:47:50;;;;;;;11.75;2.17;;;;;;;;;;5022216;28;20520;-66
2022/09/27 02:50:27;;;;;;;12.35;1.92;;;;;;;;;;4997368;28;20030;-66
2022/09/27 02:53:49;;;;;;;17.52;3.92;;;;;;;;;;5002518;28;20034;-66
2022/09/27 02:56:40;;;;;;;10.25;1.98;;;;;;;;;;4960532;28;20085;-66
2022/09/27 02:59:33;;;;;;;17.30;2.65;;;;;;;;;;4982524;28;20121;-66
2022/09/27 03:02:22;;;;;;;16.25;3.40;;;;;;;;;;4993734;28;20494;-66
2022/09/27 03:05:18;;;;;;;14.65;2.33;;;;;;;;;;4992264;28;20081;-66
2022/09/27 03:07:45;;;;;;;15.65;2.20;;;;;;;;;;4990624;28;20057;-66
2022/09/27 03:10:18;;;;;;;21.40;2.83;;;;;;;;;;4992287;28;20030;-66
2022/09/27 03:12:45;;;;;;;16.08;2.50;;;;;;;;;;4990928;28;20026;-66
2022/09/27 03:15:11;;;;;;;12.82;2.65;;;;;;;;;;4990610;28;20038;-66
2022/09/27 03:17:56;;;;;;;15.68;3.92;;;;;;;;;;4995064;28;20040;-66
2022/09/27 03:20:40;;;;;;;20.33;2.95;;;;;;;;;;4983576;28;20038;-65
2022/09/27 03:23:10;;;;;;;18.40;2.58;;;;;;;;;;4990088;28;20026;-65
2022/09/27 03:25:37;;;;;;;14.57;3.65;;;;;;;;;;4991795;28;20037;-65
2022/09/27 03:28:03;;;;;;;23.88;2.63;;;;;;;;;;4988311;28;20060;-65
2022/09/27 03:30:30;;;;;;;14.40;3.05;;;;;;;;;;4986454;28;20030;-66
2022/09/27 03:32:56;;;;;;;23.63;2.72;;;;;;;;;;4987537;28;20050;-66
2022/09/27 03:35:37;;;;;;;22.67;3.28;;;;;;;;;;4991434;28;20062;-66
2022/09/27 03:38:05;;;;;;;22.80;4.13;;;;;;;;;;4984283;28;20022;-66
2022/09/27 03:40:32;;;;;;;13.15;2.90;;;;;;;;;;4985316;28;20043;-66
2022/09/27 03:42:58;;;;;;;17.40;4.07;;;;;;;;;;4986832;28;20038;-66
2022/09/27 03:45:24;;;;;;;22.17;3.38;;;;;;;;;;4979300;28;20034;-66
2022/09/27 03:47:51;;;;;;;21.38;2.60;;;;;;;;;;4988144;28;20042;-66
2022/09/27 03:50:17;;;;;;;19.05;2.80;;;;;;;;;;4990112;28;20029;-66
2022/09/27 03:52:43;;;;;;;24.98;3.13;;;;;;;;;;4986031;28;20030;-66
2022/09/27 03:55:10;;;;;;;17.95;4.15;;;;;;;;;;4993794;28;20034;-66
2022/09/27 03:57:36;;;;;;;18.35;4.22;;;;;;;;;;4996190;28;20022;-66
2022/09/27 04:00:04;;;;;;;29.08;4.57;;;;;;;;;;4994367;28;20018;-66
2022/09/27 04:02:50;;;;;;;22.48;3.30;;;;;;;;;;4989172;28;20097;-66
2022/09/27 04:05:23;;;;;;;23.38;2.92;;;;;;;;;;4993901;28;20042;-66
2022/09/27 04:07:50;;;;;;;24.80;4.78;;;;;;;;;;4993051;28;20041;-66
2022/09/27 04:10:18;;;;;;;18.00;4.03;;;;;;;;;;4993355;28;20030;-65
2022/09/27 04:12:45;;;;;;;16.40;2.97;;;;;;;;;;4993118;28;20034;-66
2022/09/27 04:15:11;;;;;;;23.77;3.45;;;;;;;;;;4994660;28;20537;-65
2022/09/27 04:17:43;;;;;;;23.90;5.47;;;;;;;;;;4994150;28;20053;-65
2022/09/27 04:20:28;;;;;;;23.17;4.28;;;;;;;;;;4992092;28;20056;-65
2022/09/27 04:22:56;;;;;;;18.70;3.50;;;;;;;;;;4978242;28;20049;-65
2022/09/27 04:25:22;;;;;;;20.45;4.75;;;;;;;;;;4994639;28;20042;-65
2022/09/27 04:27:54;;;;;;;20.27;4.45;;;;;;;;;;4993698;28;20038;-65
2022/09/27 04:30:21;;;;;;;22.52;3.53;;;;;;;;;;4994158;28;20046;-65
2022/09/27 04:33:13;;;;;;;23.52;3.75;;;;;;;;;;4935414;29;20032;-63
2022/09/27 04:38:59;;;;;;;17.48;3.28;;;;;;;;;;4934654;29;20046;-63
2022/09/27 04:41:27;;;;;;;24.02;3.58;;;;;;;;;;4935154;29;20135;-63
2022/09/27 04:43:53;;;;;;;27.13;5.03;;;;;;;;;;4933910;29;20051;-63
2022/09/27 04:46:20;;;;;;;22.40;4.28;;;;;;;;;;4919132;29;20119;-63
2022/09/27 04:48:47;;;;;;;22.35;4.30;;;;;;;;;;4935115;29;20091;-63
2022/09/27 04:51:16;;;;;;;27.65;3.83;;;;;;;;;;4916783;29;20040;-63
2022/09/27 04:53:42;;;;;;;21.73;3.90;;;;;;;;;;4933937;29;20055;-63
2022/09/27 04:56:08;;;;;;;23.15;3.97;;;;;;;;;;4918040;29;20039;-63
2022/09/27 04:58:35;;;;;;;27.08;4.20;;;;;;;;;;4918944;29;20031;-63
2022/09/27 05:01:02;;;;;;;30.55;4.35;;;;;;;;;;4914865;29;20418;-63
2022/09/27 05:03:48;;;;;;;24.85;3.33;;;;;;;;;;4932214;29;20060;-63
2022/09/27 05:06:15;;;;;;;25.90;4.72;;;;;;;;;;4930299;29;20400;-63
2022/09/27 05:08:42;;;;;;;27.83;4.53;;;;;;;;;;4916660;29;20046;-63
2022/09/27 05:11:29;;;;;;;23.77;4.70;;;;;;;;;;4990478;28;20034;-63
2022/09/27 05:14:13;;;;;;;25.70;4.65;;;;;;;;;;4988271;28;20441;-63
2022/09/27 05:17:00;;;;;;;28.88;4.80;;;;;;;;;;4975237;28;20120;-63
2022/09/27 05:19:42;;;;;;;30.67;4.43;;;;;;;;;;4992175;28;20041;-63
2022/09/27 05:22:18;;;;;;;27.17;4.65;;;;;;;;;;5004151;28;20045;-63
2022/09/27 05:24:46;;;;;;;31.73;4.85;;;;;;;;;;4990487;28;20033;-63
2022/09/27 05:27:19;;;;;;;40.35;6.88;;;;;;;;;;4988570;28;20053;-63
2022/09/27 05:29:46;;;;;;;35.22;4.60;;;;;;;;;;4985366;28;20391;-63
2022/09/27 05:32:23;;;;;;;27.20;4.45;;;;;;;;;;4983623;28;20030;-63
2022/09/27 05:34:59;;;;;;;27.85;4.65;;;;;;;;;;4987568;28;20030;-63
2022/09/27 05:37:25;;;;;;;27.75;4.57;;;;;;;;;;4989151;28;20385;-63
2022/09/27 05:39:52;;;;;;;24.73;4.40;;;;;;;;;;4988095;28;20097;-63
2022/09/27 05:42:18;;;;;;;30.00;4.97;;;;;;;;;;4990862;28;20029;-63
2022/09/27 05:44:46;;;;;;;34.90;5.95;;;;;;;;;;4988159;28;20022;-63
2022/09/27 05:47:14;;;;;;;25.20;6.30;;;;;;;;;;4979686;28;20023;-63
2022/09/27 05:49:41;;;;;;;34.10;5.53;;;;;;;;;;4987434;28;20023;-63
2022/09/27 05:52:08;;;;;;;26.98;4.95;;;;;;;;;;4995109;28;20033;-63
2022/09/27 05:54:35;;;;;;;25.17;4.90;;;;;;;;;;5000548;28;20025;-63
2022/09/27 05:57:01;;;;;;;32.95;4.43;;;;;;;;;;4993101;28;20026;-64
2022/09/27 05:59:41;;;;;;;22.02;3.95;;;;;;;;;;4991712;28;20030;-64
2022/09/27 06:02:19;;;;;;;26.55;4.28;;;;;;;;;;4987702;28;20585;-64
2022/09/27 06:04:51;;;;;;;27.45;4.65;;;;;;;;;;4981129;28;20053;-63
2022/09/27 06:07:39;;;;;;;21.20;5.63;;;;;;;;;;4906672;29;20536;-63
2022/09/27 06:10:09;;;;;;;27.75;6.20;;;;;;;;;;4910719;29;20064;-63
2022/09/27 06:12:37;;;;;;;27.20;5.03;;;;;;;;;;4895946;29;20159;-63
2022/09/27 06:15:07;;;;;;;31.10;5.45;;;;;;;;;;4913997;29;20039;-63
2022/09/27 06:17:40;;;;;;;27.00;4.30;;;;;;;;;;4898112;29;20509;-63
2022/09/27 06:20:13;;;;;;;;;;;;;;;;;;4896754;29;20699;-63
2022/09/27 06:22:40;;;;;;;28.85;4.75;;;;;;;;;;4913947;29;19918;-63
2022/09/27 06:25:06;;;;;;;28.27;4.70;;;;;;;;;;4897632;29;20563;-63
2022/09/27 06:27:47;;;;;;;23.27;4.28;;;;;;;;;;4896346;29;20536;-65
2022/09/27 06:30:23;;;;;;;37.17;5.53;;;;;;;;;;4912914;29;20453;-64
2022/09/27 06:32:56;;;;;;;27.65;5.47;;;;;;;;;;4912165;29;20040;-64
2022/09/27 06:35:29;;;;;;;36.88;5.90;;;;;;;;;;4893100;29;20024;-64
2022/09/27 06:37:56;;;;;;;35.72;5.35;;;;;;;;;;4910829;29;20075;-64
2022/09/27 06:40:25;;;;;;;37.33;5.90;;;;;;;;;;4910736;29;20079;-64
2022/09/27 06:43:09;;;;;;;44.15;5.82;;;;;;;;;;4898280;29;20099;-64
2022/09/27 06:46:10;;;;;;;34.50;5.60;;;;;;;;;;4942237;28;20039;-64
2022/09/27 06:49:07;;;;;;;39.22;6.18;;;;;;;;;;4951755;29;20043;-64
2022/09/27 06:51:35;;;;;;;35.30;5.30;;;;;;;;;;4935366;29;20042;-64
2022/09/27 06:54:01;;;;;;;37.08;5.53;;;;;;;;;;4947021;29;20062;-64
2022/09/27 06:56:27;;;;;;;39.67;6.10;;;;;;;;;;4935181;29;20031;-64
2022/09/27 07:02:00;;;;;;;37.45;6.20;;;;;;;;;;4913146;29;20044;-64
2022/09/27 07:04:57;;;;;;;32.20;7.05;;;;;;;;;;4913336;29;20118;-64
2022/09/27 07:07:42;;;;;;;49.70;6.90;;;;;;;;;;4912702;29;20068;-64
2022/09/27 07:10:10;;;;;;;27.33;5.47;;;;;;;;;;4913287;29;20059;-64
2022/09/27 07:12:36;;;;;;;28.60;5.93;;;;;;;;;;4913015;29;20476;-64
2022/09/27 07:15:04;;;;;;;45.60;7.45;;;;;;;;;;4913441;29;20095;-64
2022/09/27 07:17:30;;;;;;;26.05;5.22;;;;;;;;;;4896957;29;20028;-64
2022/09/27 07:19:56;;;;;;;31.67;5.65;;;;;;;;;;4932361;28;20521;-64
2022/09/27 07:22:24;;;;;;;41.85;7.10;;;;;;;;;;4953882;28;20030;-64
2022/09/27 07:25:00;;;;;;;41.20;6.97;;;;;;;;;;4957186;28;20066;-64
2022/09/27 07:27:27;;;;;;;48.50;6.85;;;;;;;;;;4958175;28;20046;-64
2022/09/27 07:29:54;;;;;;;25.90;4.80;;;;;;;;;;4958436;28;20542;-64
2022/09/27 07:32:22;;;;;;;34.05;5.53;;;;;;;;;;4957882;28;20049;-64
2022/09/27 07:34:48;;;;;;;33.88;6.38;;;;;;;;;;4958238;28;20117;-64
2022/09/27 07:37:16;;;;;;;45.85;6.18;;;;;;;;;;4957707;28;20447;-64
2022/09/27 07:39:43;;;;;;;35.55;6.60;;;;;;;;;;4974115;28;20128;-64
2022/09/27 07:42:10;;;;;;;42.00;7.20;;;;;;;;;;4994500;28;20387;-64
2022/09/27 07:44:41;;;;;;;38.55;6.18;;;;;;;;;;4994429;28;20022;-64
2022/09/27 07:47:27;;;;;;;35.03;6.18;;;;;;;;;;4995182;28;20038;-64
2022/09/27 07:50:15;;;;;;;45.95;8.32;;;;;;;;;;4993938;28;20026;-64
2022/09/27 07:53:03;;;;;;;53.55;7.10;;;;;;;;;;4999324;28;20553;-64
2022/09/27 07:55:43;;;;;;;42.38;6.20;;;;;;;;;;4994494;28;20521;-64
2022/09/27 07:58:12;;;;;;;44.88;7.18;;;;;;;;;;4994121;28;20062;-64
2022/09/27 08:00:39;;;;;;;28.60;6.30;;;;;;;;;;4994374;28;20410;-64
2022/09/27 08:03:12;;;;;;;36.53;6.03;;;;;;;;;;4994132;28;20127;-64
2022/09/27 08:05:39;;;;;;;43.75;7.22;;;;;;;;;;4995124;28;20026;-64
2022/09/27 08:08:05;;;;;;;36.50;6.72;;;;;;;;;;4995307;28;20030;-64
2022/09/27 08:10:32;;;;;;;44.17;8.45;;;;;;;;;;4994146;28;20085;-64
2022/09/27 08:13:02;;;;;;;44.17;7.43;;;;;;;;;;4993962;28;20033;-64
2022/09/27 08:15:28;;;;;;;53.97;8.02;;;;;;;;;;4995327;28;20561;-64
2022/09/27 08:17:56;;;;;;;38.33;6.10;;;;;;;;;;4994030;28;20030;-64
2022/09/27 08:20:48;;;;;;;46.13;9.00;;;;;;;;;;4994447;28;20042;-64
2022/09/27 08:23:44;;;;;;;48.42;6.93;;;;;;;;;;4982060;28;20125;-64
2022/09/27 08:26:32;;;;;;;49.92;7.85;;;;;;;;;;4994994;28;20038;-64
2022/09/27 08:29:25;;;;;;;43.33;6.63;;;;;;;;;;4934490;29;20044;-64
2022/09/27 08:31:54;;;;;;;39.45;6.95;;;;;;;;;;4919238;29;20043;-64
2022/09/27 08:34:20;;;;;;;37.22;6.38;;;;;;;;;;4934287;29;20047;-64
2022/09/27 08:36:46;;;;;;;41.03;6.70;;;;;;;;;;4918508;29;20399;-64
2022/09/27 08:39:12;;;;;;;40.90;7.40;;;;;;;;;;4918427;29;20031;-64
2022/09/27 08:41:46;;;;;;;42.53;5.95;;;;;;;;;;4918753;29;20063;-64
2022/09/27 08:44:15;;;;;;;30.48;6.18;;;;;;;;;;4934592;29;20032;-64
2022/09/27 08:46:59;;;;;;;32.30;6.45;;;;;;;;;;4918715;29;20050;-64
2022/09/27 08:49:28;;;;;;;50.63;7.88;;;;;;;;;;4918524;29;20035;-64
2022/09/27 08:51:56;;;;;;;42.08;7.10;;;;;;;;;;4920389;29;20455;-64
2022/09/27 08:54:28;;;;;;;46.28;8.18;;;;;;;;;;4927818;29;20047;-64
2022/09/27 08:56:58;;;;;;;44.13;7.47;;;;;;;;;;4934452;29;20063;-64
2022/09/27 08:59:27;;;;;;;41.95;7.30;;;;;;;;;;4934579;29;20039;-64
2022/09/27 09:01:54;;;;;;;35.38;6.38;;;;;;;;;;4918499;29;20187;-64
2022/09/27 09:04:34;;;;;;;33.38;6.03;;;;;;;;;;4933943;29;20039;-64
2022/09/27 09:07:14;;;;;;;33.42;6.50;;;;;;;;;;4971226;28;20042;-64
2022/09/27 09:09:50;;;;;;;49.33;8.00;;;;;;;;;;4994006;28;21143;-64
2022/09/27 09:15:11;;;;;;;44.67;8.70;;;;;;;;;;4993088;28;20157;-64
2022/09/27 09:17:57;;;;;;;42.28;7.32;;;;;;;;;;4992325;28;20033;-64
2022/09/27 09:20:47;;;;;;;34.03;6.15;;;;;;;;;;4992657;28;20035;-64
2022/09/27 09:23:18;;;;;;;44.80;8.73;;;;;;;;;;4992980;28;20041;-64
2022/09/27 09:25:47;;;;;;;40.13;5.45;;;;;;;;;;4992518;28;20049;-64
2022/09/27 09:28:23;;;;;;;43.97;6.80;;;;;;;;;;4992823;28;20030;-64
2022/09/27 09:30:56;;;;;;;33.78;6.43;;;;;;;;;;4992168;28;20113;-64
2022/09/27 09:33:34;;;;;;;41.25;7.05;;;;;;;;;;4992160;28;20118;-64
2022/09/27 09:36:10;;;;;;;30.48;7.22;;;;;;;;;;4992613;28;20029;-64
2022/09/27 09:38:41;;;;;;;47.20;6.68;;;;;;;;;;4992096;28;20031;-64
2022/09/27 09:41:22;;;;;;;49.17;7.50;;;;;;;;;;4992483;28;20049;-65
2022/09/27 09:43:58;;;;;;;31.27;6.38;;;;;;;;;;4992352;28;20695;-65
2022/09/27 09:46:34;;;;;;;37.65;6.60;;;;;;;;;;4991929;28;20108;-64
2022/09/27 09:49:11;;;;;;;44.20;6.63;;;;;;;;;;4991527;28;20414;-64
2022/09/27 09:51:59;;;;;;;37.95;6.82;;;;;;;;;;4991873;28;20033;-64
2022/09/27 09:54:37;;;;;;;35.40;6.68;;;;;;;;;;4982941;28;20502;-64
2022/09/27 09:57:08;;;;;;;53.28;7.32;;;;;;;;;;4993287;28;20029;-64
2022/09/27 09:59:34;;;;;;;37.88;7.35;;;;;;;;;;4992296;28;20073;-64
2022/09/27 10:02:16;;;;;;;42.25;7.57;;;;;;;;;;4991756;28;20027;-64
2022/09/27 10:04:43;;;;;;;44.75;7.07;;;;;;;;;;4991499;28;20115;-64
2022/09/27 10:07:09;;;;;;;45.22;6.70;;;;;;;;;;4992213;28;20034;-64
2022/09/27 10:09:45;;;;;;;41.17;7.20;;;;;;;;;;5068519;28;20440;-64
2022/09/27 10:12:40;;;;;;;35.75;6.60;;;;;;;;;;5067600;28;20037;-64
2022/09/27 10:15:07;;;;;;;38.78;8.02;;;;;;;;;;5067265;28;20440;-64
2022/09/27 10:17:41;;;;;;;46.63;7.88;;;;;;;;;;5067652;28;20029;-64
2022/09/27 10:20:20;;;;;;;38.28;6.38;;;;;;;;;;5058834;28;20558;-64
2022/09/27 10:22:53;;;;;;;37.22;5.70;;;;;;;;;;5065797;28;20025;-64
2022/09/27 10:25:49;;;;;;;34.00;5.93;;;;;;;;;;5065717;28;20033;-64
2022/09/27 10:28:37;;;;;;;40.60;6.45;;;;;;;;;;5066839;28;20036;-64
2022/09/27 10:31:05;;;;;;;30.50;5.55;;;;;;;;;;5065121;28;20078;-64
2022/09/27 10:33:38;;;;;;;39.33;6.68;;;;;;;;;;5065858;28;20017;-64
2022/09/27 10:36:21;;;;;;;35.97;6.18;;;;;;;;;;5066514;28;20049;-64
2022/09/27 10:38:52;;;;;;;33.08;5.45;;;;;;;;;;5064880;28;20428;-64
2022/09/27 10:41:26;;;;;;;39.00;5.78;;;;;;;;;;5066351;28;20401;-64
2022/09/27 10:44:17;;;;;;;30.00;5.90;;;;;;;;;;5065755;28;20047;-64
2022/09/27 10:46:52;;;;;;;30.13;4.95;;;;;;;;;;5065827;28;20032;-64
2022/09/27 10:49:33;;;;;;;34.13;5.65;;;;;;;;;;5066393;28;20033;-64
2022/09/27 10:52:06;;;;;;;34.13;5.90;;;;;;;;;;5062895;28;20055;-64
2022/09/27 10:54:34;;;;;;;39.00;6.75;;;;;;;;;;5058149;28;20040;-64
2022/09/27 10:57:03;;;;;;;31.33;5.13;;;;;;;;;;5065893;28;20028;-64
2022/09/27 10:59:31;;;;;;;37.92;6.25;;;;;;;;;;5066323;28;20032;-64
2022/09/27 11:01:57;;;;;;;54.03;7.53;;;;;;;;;;5066074;28;20216;-64
2022/09/27 11:04:38;;;;;;;32.13;4.50;;;;;;;;;;5065692;28;20025;-64
2022/09/27 11:07:18;;;;;;;24.38;5.40;;;;;;;;;;5066633;28;20033;-64
2022/09/27 11:09:53;;;;;;;30.58;4.65;;;;;;;;;;5060335;28;20120;-64
2022/09/27 11:12:21;;;;;;;35.90;5.57;;;;;;;;;;5066397;28;20070;-64
2022/09/27 11:14:53;;;;;;;29.98;5.13;;;;;;;;;;5065423;28;20025;-64
2022/09/27 11:17:25;;;;;;;27.02;5.00;;;;;;;;;;5066093;28;20035;-64
2022/09/27 11:20:16;;;;;;;20.60;3.95;;;;;;;;;;5046897;28;20079;-64
2022/09/27 11:22:49;;;;;;;23.48;4.60;;;;;;;;;;5052503;28;20075;-64
2022/09/27 11:25:35;;;;;;;35.67;4.70;;;;;;;;;;5053235;28;20059;-64
2022/09/27 11:28:14;;;;;;;28.52;5.60;;;;;;;;;;5052415;28;20036;-64
2022/09/27 11:30:47;;;;;;;28.95;4.72;;;;;;;;;;5053325;28;20154;-64
2022/09/27 11:33:46;;;;;;;27.50;5.28;;;;;;;;;;5052558;28;20124;-64
2022/09/27 11:36:16;;;;;;;38.25;5.95;;;;;;;;;;5052720;28;20385;-64
2022/09/27 11:38:53;;;;;;;27.65;4.15;;;;;;;;;;5051734;28;20032;-64
2022/09/27 11:41:28;;;;;;;16.13;4.00;;;;;;;;;;5052460;28;20048;-64
2022/09/27 11:43:55;;;;;;;26.08;3.83;;;;;;;;;;5050722;28;20029;-64
2022/09/27 11:46:31;;;;;;;19.63;3.13;;;;;;;;;;5052010;28;20021;-64
2022/09/27 11:49:18;;;;;;;22.13;4.40;;;;;;;;;;5050056;28;20032;-64
2022/09/27 11:52:01;;;;;;;28.58;4.32;;;;;;;;;;5050054;28;20040;-64
2022/09/27 11:54:46;;;;;;;33.15;5.13;;;;;;;;;;5043315;28;20033;-64
2022/09/27 11:57:22;;;;;;;31.90;5.90;;;;;;;;;;5045689;28;20026;-64
2022/09/27 12:00:09;;;;;;;35.45;4.60;;;;;;;;;;5032689;28;20055;-64
2022/09/27 12:02:54;;;;;;;38.97;6.97;;;;;;;;;;5033774;28;20033;-64
2022/09/27 12:05:36;;;;;;;29.60;5.15;;;;;;;;;;5017261;28;20432;-64
2022/09/27 12:08:16;;;;;;;35.65;5.95;;;;;;;;;;5028870;28;20041;-64
2022/09/27 12:10:46;;;;;;;29.08;3.85;;;;;;;;;;5032516;28;20437;-64
2022/09/27 12:13:13;;;;;;;29.38;4.60;;;;;;;;;;5032288;28;20116;-64
2022/09/27 12:15:44;;;;;;;23.73;4.97;;;;;;;;;;5032211;28;20108;-64
2022/09/27 12:18:20;;;;;;;30.92;3.85;;;;;;;;;;5050607;28;20071;-64
2022/09/27 12:20:46;;;;;;;28.15;3.88;;;;;;;;;;5051512;28;20500;-64
2022/09/27 12:23:16;;;;;;;31.73;4.00;;;;;;;;;;5026254;28;20025;-64
2022/09/27 12:25:58;;;;;;;27.33;4.50;;;;;;;;;;5050787;28;20405;-64
2022/09/27 12:28:44;;;;;;;25.87;4.60;;;;;;;;;;5051853;28;20043;-64
2022/09/27 12:31:32;;;;;;;24.92;4.82;;;;;;;;;;5050375;28;20276;-64
2022/09/27 12:34:00;;;;;;;20.35;4.25;;;;;;;;;;5036249;28;20489;-64
2022/09/27 12:36:28;;;;;;;16.77;3.13;;;;;;;;;;5041162;28;20035;-64
2022/09/27 12:39:12;;;;;;;18.08;3.60;;;;;;;;;;5051062;28;20119;-64
2022/09/27 12:41:42;;;;;;;19.80;3.35;;;;;;;;;;5051517;28;20400;-64
2022/09/27 12:44:25;;;;;;;14.40;2.40;;;;;;;;;;5040080;28;20117;-64
2022/09/27 12:46:59;;;;;;;16.13;2.72;;;;;;;;;;5050651;28;20076;-64
2022/09/27 12:49:28;;;;;;;11.05;2.30;;;;;;;;;;5051435;28;20400;-64
2022/09/27 12:51:59;;;;;;;10.27;2.42;;;;;;;;;;5048898;28;20059;-64
2022/09/27 12:54:26;;;;;;;17.83;2.15;;;;;;;;;;5031618;28;20045;-64
2022/09/27 12:57:11;;;;;;;10.98;1.58;;;;;;;;;;5031299;28;20017;-64
2022/09/27 12:59:52;;;;;;;8.93;2.47;;;;;;;;;;5033164;28;20033;-64
2022/09/27 13:02:31;;;;;;;15.65;2.03;;;;;;;;;;5021093;28;20029;-64
2022/09/27 13:05:04;;;;;;;10.25;1.48;;;;;;;;;;5031926;28;20037;-64
2022/09/27 13:07:33;;;;;;;4.88;1.55;;;;;;;;;;5031685;28;20124;-64
2022/09/27 13:10:10;;;;;;;9.27;1.58;;;;;;;;;;5031327;28;20115;-64
2022/09/27 13:12:38;;;;;;;5.93;2.47;;;;;;;;;;5032006;28;20049;-63
2022/09/27 13:15:13;;;;;;;9.70;1.52;;;;;;;;;;5035040;28;20031;-63
2022/09/27 13:17:39;;;;;;;7.00;1.50;;;;;;;;;;5031667;28;20035;-63
2022/09/27 13:20:26;;;;;;;8.43;1.80;;;;;;;;;;5031726;28;20018;-63
2022/09/27 13:22:52;;;;;;;10.60;1.85;;;;;;;;;;5033731;28;20037;-63
2022/09/27 13:25:46;;;;;;;8.65;1.60;;;;;;;;;;5031507;28;20167;-63
2022/09/27 13:28:32;;;;;;;7.25;1.63;;;;;;;;;;5022696;28;20115;-63
2022/09/27 13:30:59;;;;;;;9.88;1.75;;;;;;;;;;5032652;28;20033;-63
2022/09/27 13:33:31;;;;;;;11.77;1.70;;;;;;;;;;5032130;28;20026;-63
2022/09/27 13:36:18;;;;;;;8.13;1.30;;;;;;;;;;5031898;28;20018;-63
2022/09/27 13:39:05;;;;;;;8.05;1.25;;;;;;;;;;5031436;28;20405;-63
2022/09/27 13:41:47;;;;;;;4.82;1.00;;;;;;;;;;5031377;28;20426;-63
2022/09/27 13:44:13;;;;;;;6.22;0.95;;;;;;;;;;5027357;28;20084;-63
2022/09/27 13:46:56;;;;;;;4.80;0.70;;;;;;;;;;5025984;28;20504;-63
2022/09/27 13:49:28;;;;;;;6.47;0.95;;;;;;;;;;5022849;28;20029;-63
2022/09/27 13:52:32;;;;;;;5.32;1.25;;;;;;;;;;5033551;28;20041;-63
2022/09/27 13:55:27;;;;;;;10.25;1.20;;;;;;;;;;5027625;28;20508;-63
2022/09/27 13:57:59;;;;;;;6.10;1.40;;;;;;;;;;5014378;28;20037;-63
2022/09/27 14:00:31;;;;;;;10.13;1.65;;;;;;;;;;5029268;28;20456;-64
2022/09/27 14:03:07;;;;;;;11.98;1.38;;;;;;;;;;5030623;28;20033;-64
2022/09/27 14:05:36;;;;;;;12.10;1.95;;;;;;;;;;5035979;28;20452;-64
2022/09/27 14:08:04;;;;;;;10.88;1.42;;;;;;;;;;5043653;28;20479;-64
2022/09/27 14:10:31;;;;;;;3.70;1.40;;;;;;;;;;5039074;28;20059;-64
2022/09/27 14:13:00;;;;;;;8.30;1.30;;;;;;;;;;5044623;28;20120;-64
2022/09/27 14:15:28;;;;;;;9.18;1.85;;;;;;;;;;5048348;28;20025;-64
2022/09/27 14:17:57;;;;;;;8.52;1.20;;;;;;;;;;5030074;28;20036;-64
2022/09/27 14:20:34;;;;;;;11.40;1.70;;;;;;;;;;5041333;28;20423;-63
2022/09/27 14:23:03;;;;;;;3.40;0.85;;;;;;;;;;5032153;28;20461;-63
2022/09/27 14:25:38;;;;;;;7.97;2.30;;;;;;;;;;5014117;28;20036;-63
2022/09/27 14:28:17;;;;;;;5.70;1.10;;;;;;;;;;5015176;28;20048;-63
2022/09/27 14:31:17;;;;;;;5.65;1.20;;;;;;;;;;5014946;28;20424;-63
2022/09/27 14:34:07;;;;;;;6.63;1.67;;;;;;;;;;5024077;28;20025;-64
2022/09/27 14:39:36;;;;;;;10.70;1.77;;;;;;;;;;5015900;28;20042;-64
2022/09/27 14:42:23;;;;;;;14.50;2.00;;;;;;;;;;5010655;28;20120;-64
2022/09/27 14:44:50;;;;;;;20.73;2.42;;;;;;;;;;5014220;28;20041;-63
2022/09/27 14:47:16;;;;;;;15.73;2.70;;;;;;;;;;5018940;28;20100;-64
2022/09/27 14:49:46;;;;;;;22.67;2.95;;;;;;;;;;5019449;28;20038;-64
2022/09/27 14:52:17;;;;;;;20.75;3.80;;;;;;;;;;5017954;28;20025;-64
2022/09/27 14:54:46;;;;;;;21.83;3.33;;;;;;;;;;5013992;28;20033;-64
2022/09/27 14:57:16;;;;;;;39.38;4.13;;;;;;;;;;5019059;28;20109;-64
2022/09/27 14:59:45;;;;;;;25.60;3.72;;;;;;;;;;5019723;28;20034;-64
2022/09/27 15:02:17;;;;;;;21.45;3.92;;;;;;;;;;5024825;28;20389;-64
2022/09/27 15:04:47;;;;;;;26.60;4.05;;;;;;;;;;5048748;28;20091;-64
2022/09/27 15:07:17;;;;;;;27.85;4.93;;;;;;;;;;5054343;28;20056;-64
2022/09/27 15:09:44;;;;;;;24.17;4.20;;;;;;;;;;5046798;28;20088;-64
2022/09/27 15:12:13;;;;;;;24.67;3.53;;;;;;;;;;5054215;28;20055;-64
2022/09/27 15:14:41;;;;;;;19.17;3.55;;;;;;;;;;5053149;28;20029;-64
2022/09/27 15:17:19;;;;;;;39.40;4.80;;;;;;;;;;5053859;28;20029;-64
2022/09/27 15:19:59;;;;;;;35.58;5.10;;;;;;;;;;5051121;28;20029;-64
2022/09/27 15:22:32;;;;;;;29.85;3.90;;;;;;;;;;5039084;28;20025;-64
2022/09/27 15:25:16;;;;;;;33.50;5.00;;;;;;;;;;5036359;28;20069;-64